Time;durP1;ratioP1;P1;durP2;ratioP2;P2;SDS_P1;SDS_P2;PMS_P1;PMS_P2;Temp;Humidity;BMP_temperature;BMP_pressure;BME280_temperature;BME280_humidity;BME280_pressure;Samples;Min_cycle;Max_cycle;Signal;HPM_P1;HPM_P2
2024/03/20 00:00:47;;;;;;;2.85;2.50;;;8.50;63.10;;;3.75;100.00;95655.59;4951847;28;20023;-55
2024/03/20 00:03:13;;;;;;;4.55;2.60;;;8.50;63.20;;;3.73;100.00;95655.81;4950128;28;21208;-56
2024/03/20 00:05:39;;;;;;;3.40;2.65;;;8.50;63.50;;;3.71;100.00;95657.88;4951860;28;20545;-50
2024/03/20 00:08:05;;;;;;;4.70;2.58;;;8.50;63.60;;;3.73;100.00;95661.09;4951332;28;20097;-51
2024/03/20 00:10:31;;;;;;;4.47;2.80;;;8.50;63.70;;;3.72;100.00;95651.56;4950709;28;20027;-52
2024/03/20 00:12:57;;;;;;;3.70;2.90;;;8.50;63.80;;;3.69;100.00;95660.69;4950854;28;20052;-50
2024/03/20 00:15:23;;;;;;;3.50;2.80;;;8.50;63.90;;;3.69;100.00;95652.00;4950750;28;20033;-52
2024/03/20 00:17:49;;;;;;;5.38;2.60;;;8.40;63.80;;;3.69;100.00;95655.44;4949549;28;20073;-50
2024/03/20 00:20:15;;;;;;;3.60;2.90;;;8.40;63.90;;;3.69;100.00;95647.53;4946994;28;20473;-56
2024/03/20 00:22:41;;;;;;;6.10;3.47;;;8.40;64.10;;;3.71;100.00;95645.50;4950009;28;20532;-55
2024/03/20 00:25:09;;;;;;;5.63;3.20;;;8.40;64.30;;;3.76;100.00;95644.84;4960464;28;20093;-53
2024/03/20 00:27:35;;;;;;;4.20;2.95;;;8.40;64.60;;;3.78;100.00;95641.97;4930413;23;1130060;-52
2024/03/20 00:30:01;;;;;;;6.20;3.33;;;8.50;64.70;;;3.84;100.00;95644.53;4968386;28;20092;-52
2024/03/20 00:32:28;;;;;;;5.35;3.33;;;8.50;64.90;;;3.85;100.00;95646.13;4968115;28;20026;-49
2024/03/20 00:34:54;;;;;;;3.67;2.63;;;8.50;64.90;;;3.90;100.00;95650.75;4967536;28;20030;-51
2024/03/20 00:37:19;;;;;;;6.68;2.92;;;8.50;64.90;;;3.87;100.00;95649.38;4965403;28;20026;-48
2024/03/20 00:39:45;;;;;;;3.75;3.10;;;8.60;64.80;;;3.84;100.00;95641.91;4966173;28;20153;-47
2024/03/20 00:42:11;;;;;;;4.50;3.10;;;8.50;64.70;;;3.82;100.00;95635.22;4970504;28;20033;-50
2024/03/20 00:44:37;;;;;;;4.07;2.95;;;8.60;64.70;;;3.81;100.00;95644.97;4967659;28;20045;-49
2024/03/20 00:47:04;;;;;;;5.03;3.45;;;8.60;64.70;;;3.79;100.00;95636.50;4968569;28;20161;-50
2024/03/20 00:49:30;;;;;;;4.88;3.33;;;8.50;64.60;;;3.80;100.00;95637.31;4969845;28;20488;-49
2024/03/20 00:51:56;;;;;;;4.72;3.22;;;8.50;64.70;;;3.80;100.00;95637.31;4969610;28;20037;-49
2024/03/20 00:54:22;;;;;;;3.35;2.85;;;8.50;64.70;;;3.81;100.00;95638.91;4969080;28;20129;-47
2024/03/20 00:56:48;;;;;;;6.22;3.30;;;8.50;64.70;;;3.72;100.00;95630.47;4965306;28;20044;-47
2024/03/20 00:59:15;;;;;;;5.18;3.00;;;8.50;65.40;;;3.66;100.00;95629.53;4966681;28;20022;-50
2024/03/20 01:01:41;;;;;;;5.03;3.17;;;8.50;64.70;;;3.66;100.00;95629.53;4969312;28;20049;-48
2024/03/20 01:04:07;;;;;;;4.03;2.75;;;8.40;64.60;;;3.65;100.00;95635.03;4969321;28;20508;-51
2024/03/20 01:06:33;;;;;;;2.95;2.65;;;8.50;64.70;;;3.63;100.00;95632.59;4969294;28;20113;-50
2024/03/20 01:08:59;;;;;;;4.28;3.22;;;8.40;64.60;;;3.58;100.00;95631.66;4967638;28;20522;-56
2024/03/20 01:11:25;;;;;;;5.50;3.60;;;8.40;64.60;;;3.52;100.00;95640.44;4964130;28;20116;-49
2024/03/20 01:13:51;;;;;;;6.10;4.15;;;8.30;64.60;;;3.55;100.00;95629.47;4968659;28;20557;-51
2024/03/20 01:16:18;;;;;;;6.47;3.80;;;8.30;64.80;;;3.57;100.00;95632.69;4969346;28;20018;-48
2024/03/20 01:18:44;;;;;;;5.15;3.83;;;8.30;65.00;;;3.59;100.00;95634.06;4963441;28;20031;-47
2024/03/20 01:21:10;;;;;;;6.20;4.03;;;8.30;65.00;;;3.55;100.00;95629.47;4974617;28;20033;-50
2024/03/20 01:23:36;;;;;;;8.35;4.10;;;8.30;65.00;;;3.44;100.00;95633.63;4969773;28;20489;-47
2024/03/20 01:26:02;;;;;;;5.95;3.60;;;8.20;64.90;;;3.38;100.00;95632.66;4972157;28;20042;-47
2024/03/20 01:28:28;;;;;;;6.18;3.45;;;8.20;64.90;;;3.32;100.00;95630.91;4964549;28;20412;-50
2024/03/20 01:30:55;;;;;;;4.60;3.35;;;8.20;64.90;;;3.24;100.00;95626.72;4970166;28;20022;-48
2024/03/20 01:33:21;;;;;;;5.50;3.60;;;8.10;64.80;;;3.22;100.00;95630.59;4971464;28;20385;-51
2024/03/20 01:35:47;;;;;;;7.35;3.80;;;8.10;64.80;;;3.19;100.00;95620.50;4968605;28;20022;-50
2024/03/20 01:38:13;;;;;;;4.70;3.70;;;8.00;64.90;;;3.17;100.00;95633.09;4972981;28;20053;-51
2024/03/20 01:40:40;;;;;;;6.30;3.75;;;8.00;64.90;;;3.14;100.00;95633.53;4968392;28;20079;-50
2024/03/20 01:43:19;;;;;;;5.07;3.50;;;8.00;65.10;;;3.16;100.00;95632.25;4972888;28;20030;-48
2024/03/20 01:45:48;;;;;;;12.48;3.60;;;7.90;65.20;;;3.09;100.00;95634.16;4972742;28;20054;-49
2024/03/20 01:48:16;;;;;;;7.68;4.03;;;7.90;65.20;;;3.14;100.00;95629.06;4973012;28;20436;-51
2024/03/20 01:50:44;;;;;;;7.35;3.88;;;7.90;65.30;;;3.21;100.00;95632.44;4973539;28;20037;-50
2024/03/20 01:53:13;;;;;;;4.95;3.67;;;7.90;65.50;;;3.13;100.00;95631.88;4972809;28;20080;-55
2024/03/20 01:55:40;;;;;;;5.82;3.95;;;7.90;65.40;;;3.01;100.00;95632.59;4972016;28;20053;-50
2024/03/20 01:58:06;;;;;;;6.35;4.20;;;7.90;65.40;;;2.98;100.00;95633.03;4950350;28;20037;-54
2024/03/20 02:00:32;;;;;;;5.93;4.20;;;7.80;65.30;;;2.96;100.00;95635.06;4971110;28;20026;-51
2024/03/20 02:03:03;;;;;;;6.85;3.90;;;7.80;65.20;;;2.96;100.00;95632.44;4971587;28;20034;-51
2024/03/20 02:05:30;;;;;;;8.63;4.78;;;7.80;65.40;;;2.95;100.00;95636.09;4973432;28;20029;-51
2024/03/20 02:07:58;;;;;;;8.55;5.10;;;7.70;65.40;;;2.94;100.00;95636.31;4972487;28;20041;-49
2024/03/20 02:10:25;;;;;;;6.97;4.72;;;7.70;65.50;;;2.92;100.00;95635.72;4972405;28;20018;-50
2024/03/20 02:13:06;;;;;;;8.05;5.20;;;7.70;65.60;;;2.92;100.00;95638.38;4982679;28;20022;-52
2024/03/20 02:15:34;;;;;;;7.70;4.50;;;7.70;65.90;;;2.90;100.00;95637.75;4972253;28;20084;-48
2024/03/20 02:18:01;;;;;;;7.43;4.47;;;7.70;65.80;;;2.86;100.00;95637.38;4972733;28;20022;-50
2024/03/20 02:20:28;;;;;;;8.05;5.00;;;7.70;65.80;;;2.86;100.00;95640.03;4973040;28;20504;-49
2024/03/20 02:22:54;;;;;;;9.52;5.28;;;7.70;65.80;;;2.85;100.00;95640.22;4972502;28;20396;-47
2024/03/20 02:25:28;;;;;;;9.93;5.35;;;7.60;65.80;;;2.81;100.00;95639.84;4973073;28;20026;-48
2024/03/20 02:27:55;;;;;;;5.95;4.20;;;7.60;65.90;;;2.80;100.00;95632.19;4966179;28;20059;-48
2024/03/20 02:30:21;;;;;;;7.65;4.75;;;7.60;65.90;;;2.81;100.00;95629.31;4971616;28;20053;-50
2024/03/20 02:32:47;;;;;;;9.15;4.90;;;7.60;65.90;;;2.84;100.00;95639.41;4971607;28;20037;-47
2024/03/20 02:35:13;;;;;;;13.88;5.55;;;7.60;66.00;;;2.85;100.00;95637.59;4971794;28;20034;-49
2024/03/20 02:37:39;;;;;;;12.85;5.18;;;7.60;66.10;;;2.82;100.00;95641.47;4972269;28;20125;-51
2024/03/20 02:40:06;;;;;;;6.43;4.60;;;7.60;66.20;;;2.77;100.00;95636.03;4971061;28;20105;-50
2024/03/20 02:42:33;;;;;;;7.43;4.95;;;7.60;66.20;;;2.75;100.00;95635.44;4970556;28;20500;-50
2024/03/20 02:44:59;;;;;;;9.50;5.20;;;7.60;66.30;;;2.81;100.00;95642.47;4970062;28;20500;-57
2024/03/20 02:47:25;;;;;;;7.82;4.90;;;7.60;66.30;;;2.86;100.00;95641.84;4968184;28;20026;-56
2024/03/20 02:49:53;;;;;;;8.35;5.50;;;7.60;66.40;;;2.88;100.00;95648.47;4972408;28;20029;-50
2024/03/20 02:52:20;;;;;;;9.90;5.28;;;7.60;66.50;;;2.92;100.00;95652.31;4967338;28;20112;-51
2024/03/20 02:54:46;;;;;;;8.60;5.68;;;7.60;66.60;;;2.95;100.00;95648.47;4972171;28;20029;-49
2024/03/20 02:57:11;;;;;;;7.20;5.05;;;7.70;66.70;;;2.97;100.00;95651.66;4967221;28;20504;-49
2024/03/20 02:59:37;;;;;;;8.63;5.50;;;7.70;66.70;;;2.96;100.00;95653.50;4971786;28;20022;-52
2024/03/20 03:02:03;;;;;;;10.75;5.70;;;7.60;66.70;;;2.97;100.00;95651.66;4966926;28;20031;-50
2024/03/20 03:04:29;;;;;;;7.03;5.40;;;7.70;67.60;;;2.96;100.00;95664.03;4964314;28;20022;-49
2024/03/20 03:06:55;;;;;;;8.10;5.40;;;7.70;66.70;;;2.94;100.00;95657.34;4970572;28;20060;-52
2024/03/20 03:09:21;;;;;;;6.30;4.85;;;7.70;66.80;;;2.91;100.00;95668.31;4966148;28;20018;-48
2024/03/20 03:11:47;;;;;;;9.18;5.20;;;7.70;66.70;;;2.85;100.00;95670.00;4967970;28;20064;-48
2024/03/20 03:14:15;;;;;;;9.10;5.22;;;7.70;66.70;;;2.82;100.00;95667.78;4965208;28;20516;-48
2024/03/20 03:16:41;;;;;;;7.38;4.75;;;7.70;66.60;;;2.76;100.00;95668.63;4964050;28;20076;-47
2024/03/20 03:19:09;;;;;;;7.40;5.15;;;7.60;66.50;;;2.71;100.00;95666.63;4970867;28;20018;-52
2024/03/20 03:21:36;;;;;;;8.65;4.60;;;7.60;66.40;;;2.66;100.00;95670.91;4969000;28;20050;-52
2024/03/20 03:24:04;;;;;;;7.15;5.10;;;7.60;67.10;;;2.61;100.00;95681.28;4970336;28;20080;-52
2024/03/20 03:26:34;;;;;;;9.73;4.40;;;7.50;66.30;;;2.55;100.00;95678.47;4964548;28;20133;-49
2024/03/20 03:29:00;;;;;;;9.95;5.15;;;7.50;66.30;;;2.58;100.00;95685.13;4960144;28;20053;-53
2024/03/20 03:31:26;;;;;;;7.10;4.68;;;7.40;66.30;;;2.52;100.00;95685.97;4968372;28;20355;-55
2024/03/20 03:33:52;;;;;;;7.20;4.55;;;7.40;66.30;;;2.51;100.00;95679.13;4969927;28;20026;-52
2024/03/20 03:36:18;;;;;;;6.80;4.90;;;7.40;66.40;;;2.51;100.00;95685.19;4968639;28;20037;-49
2024/03/20 03:38:45;;;;;;;8.77;5.03;;;7.40;66.40;;;2.49;100.00;95686.41;4967448;28;20022;-50
2024/03/20 03:41:10;;;;;;;10.63;5.18;;;7.30;66.30;;;2.41;100.00;95686.63;4970297;28;20041;-50
2024/03/20 03:43:36;;;;;;;6.88;5.00;;;7.30;66.40;;;2.42;100.00;95693.53;4972648;28;20030;-53
2024/03/20 03:46:03;;;;;;;9.95;5.63;;;7.30;66.40;;;2.37;100.00;95696.75;4970454;28;20473;-53
2024/03/20 03:48:29;;;;;;;8.93;5.20;;;7.20;66.40;;;2.32;100.00;95696.59;4964745;28;20031;-50
2024/03/20 03:50:56;;;;;;;7.43;5.07;;;7.20;66.50;;;2.27;100.00;95697.22;4969348;28;20025;-49
2024/03/20 03:53:22;;;;;;;10.98;4.93;;;7.20;66.50;;;2.24;100.00;95707.34;4970253;28;20156;-50
2024/03/20 03:55:49;;;;;;;8.70;5.35;;;7.10;66.50;;;2.20;100.00;95699.09;4970870;28;20319;-50
2024/03/20 03:58:15;;;;;;;7.45;4.97;;;7.10;66.50;;;2.16;100.00;95703.13;4966265;28;20392;-49
2024/03/20 04:00:41;;;;;;;7.85;5.28;;;7.10;66.60;;;2.11;100.00;95691.66;4965364;28;20061;-48
2024/03/20 04:03:07;;;;;;;10.27;5.95;;;7.00;66.50;;;2.09;100.00;95697.09;4968502;28;20037;-48
2024/03/20 04:05:35;;;;;;;11.88;6.63;;;7.00;66.60;;;2.08;100.00;95698.91;4970816;28;20412;-49
2024/03/20 04:08:02;;;;;;;9.90;6.38;;;6.90;66.80;;;2.09;100.00;95702.34;4969587;28;20026;-47
2024/03/20 04:10:28;;;;;;;8.45;5.60;;;6.90;66.90;;;2.06;100.00;95708.03;4969812;28;20026;-49
2024/03/20 04:12:54;;;;;;;7.70;5.40;;;7.00;67.00;;;2.06;100.00;95702.75;4970551;28;20480;-52
2024/03/20 04:15:19;;;;;;;8.95;6.22;;;6.90;67.00;;;2.05;100.00;95701.16;4969600;28;20049;-50
2024/03/20 04:17:45;;;;;;;11.95;7.00;;;6.90;66.90;;;2.03;100.00;95703.97;4966691;28;20042;-53
2024/03/20 04:20:11;;;;;;;12.55;6.90;;;6.90;67.00;;;2.05;100.00;95703.78;4970879;28;20022;-53
2024/03/20 04:22:41;;;;;;;13.70;7.70;;;6.90;67.20;;;2.09;100.00;95708.41;4969027;28;20034;-51
2024/03/20 04:25:08;;;;;;;12.68;6.68;;;6.90;67.40;;;2.11;100.00;95705.59;4970641;28;20388;-51
2024/03/20 04:27:37;;;;;;;12.38;7.25;;;6.90;67.50;;;2.11;100.00;95704.78;4969462;28;20046;-49
2024/03/20 04:30:07;;;;;;;14.10;8.25;;;6.90;67.60;;;2.19;100.00;95702.72;4965873;28;20109;-49
2024/03/20 04:32:34;;;;;;;13.95;6.43;;;6.90;67.70;;;2.30;100.00;95706.53;4968317;28;20060;-55
2024/03/20 04:35:01;;;;;;;15.88;7.72;;;7.00;67.90;;;2.31;100.00;95708.13;4968170;28;20030;-50
2024/03/20 04:37:27;;;;;;;12.27;6.85;;;7.00;67.80;;;2.33;100.00;95708.72;4970154;28;20476;-49
2024/03/20 04:39:53;;;;;;;14.52;8.18;;;7.00;67.90;;;2.34;100.00;95706.91;4968936;28;20033;-52
2024/03/20 04:42:19;;;;;;;13.77;7.60;;;7.00;68.00;;;2.35;100.00;95714.59;4968591;28;20034;-51
2024/03/20 04:44:46;;;;;;;14.35;7.88;;;7.10;68.00;;;2.35;100.00;95711.13;4971803;28;20026;-50
2024/03/20 04:47:12;;;;;;;15.02;8.25;;;7.10;68.10;;;2.34;100.00;95715.59;4969390;28;20113;-51
2024/03/20 04:49:37;;;;;;;13.10;7.15;;;7.10;68.00;;;2.30;100.00;95709.94;4968652;28;20533;-51
2024/03/20 04:52:04;;;;;;;10.13;7.05;;;7.10;68.00;;;2.27;100.00;95709.56;4969889;28;20129;-50
2024/03/20 04:54:30;;;;;;;9.93;6.65;;;7.10;67.90;;;2.23;100.00;95709.19;4971854;28;20018;-51
2024/03/20 04:56:55;;;;;;;14.98;9.00;;;7.10;67.70;;;2.16;100.00;95718.88;4974333;28;20040;-49
2024/03/20 04:59:21;;;;;;;11.30;7.07;;;7.10;67.60;;;2.21;100.00;95715.66;4973295;28;20033;-49
2024/03/20 05:01:47;;;;;;;10.20;6.15;;;7.10;67.60;;;2.23;100.00;95717.06;4974158;28;20144;-52
2024/03/20 05:04:13;;;;;;;9.95;6.28;;;7.00;67.50;;;2.19;100.00;95723.72;4973205;28;20160;-53
2024/03/20 05:06:38;;;;;;;10.68;6.25;;;7.00;67.50;;;2.15;100.00;95721.75;4973825;28;20036;-50
2024/03/20 05:09:04;;;;;;;9.23;5.82;;;7.00;67.50;;;2.09;100.00;95729.44;4973788;28;20030;-50
2024/03/20 05:11:31;;;;;;;15.57;6.43;;;6.90;67.40;;;1.99;100.00;95726.44;4973686;28;20022;-50
2024/03/20 05:13:57;;;;;;;12.23;5.55;;;6.90;67.30;;;1.97;100.00;95728.47;4974101;28;20049;-53
2024/03/20 05:16:23;;;;;;;10.82;5.50;;;6.90;67.30;;;1.95;100.00;95729.69;4973304;28;20053;-51
2024/03/20 05:18:48;;;;;;;8.40;5.53;;;6.90;67.30;;;1.90;100.00;95732.94;4972220;28;20393;-52
2024/03/20 05:21:14;;;;;;;9.68;5.70;;;6.80;67.30;;;1.82;100.00;95733.97;4973324;28;20508;-49
2024/03/20 05:23:40;;;;;;;10.55;5.18;;;6.80;67.30;;;1.78;100.00;95735.38;4973836;28;20408;-51
2024/03/20 05:26:06;;;;;;;8.43;4.75;;;6.70;67.20;;;1.74;100.00;95736.81;4973921;28;20106;-52
2024/03/20 05:28:32;;;;;;;20.25;6.25;;;6.70;67.30;;;1.76;100.00;95740.03;4972494;28;20124;-50
2024/03/20 05:30:57;;;;;;;11.73;6.07;;;6.70;67.30;;;1.74;100.00;95734.19;4973777;28;20030;-50
2024/03/20 05:33:23;;;;;;;12.18;6.35;;;6.70;67.40;;;1.69;100.00;95733.19;4972831;28;20026;-50
2024/03/20 05:35:49;;;;;;;12.20;6.40;;;6.60;67.40;;;1.67;100.00;95738.66;4973516;28;20022;-51
2024/03/20 05:38:16;;;;;;;19.45;6.55;;;6.60;67.40;;;1.64;100.00;95733.81;4972913;28;20022;-48
2024/03/20 05:40:42;;;;;;;11.60;6.43;;;6.60;67.50;;;1.63;100.00;95740.06;4972854;28;20049;-54
2024/03/20 05:43:08;;;;;;;11.68;5.18;;;6.60;67.60;;;1.60;100.00;95740.50;4972616;28;20061;-48
2024/03/20 05:45:35;;;;;;;13.95;5.55;;;6.60;67.60;;;1.58;100.00;95739.88;4972741;28;20110;-50
2024/03/20 05:48:01;;;;;;;9.18;5.38;;;6.50;67.60;;;1.56;100.00;95739.25;4973341;28;20124;-52
2024/03/20 05:50:27;;;;;;;10.90;5.90;;;6.50;67.60;;;1.56;100.00;95742.69;4972941;28;20427;-49
2024/03/20 05:52:54;;;;;;;16.08;7.25;;;6.60;67.70;;;1.58;100.00;95745.13;4972738;28;20110;-48
2024/03/20 05:55:22;;;;;;;18.30;8.25;;;6.50;67.70;;;1.62;100.00;95744.50;4973474;28;20018;-50
2024/03/20 05:57:51;;;;;;;14.70;7.05;;;6.60;67.80;;;1.66;100.00;95749.34;4972320;28;20049;-55
2024/03/20 06:00:25;;;;;;;15.63;6.63;;;6.60;67.90;;;1.74;100.00;95749.13;4972072;28;20064;-49
2024/03/20 06:02:54;;;;;;;14.15;7.43;;;6.70;68.10;;;1.80;100.00;95751.75;4973314;28;20061;-50
2024/03/20 06:05:20;;;;;;;14.05;6.75;;;6.70;68.00;;;1.81;100.00;95757.81;4972003;28;20053;-53
2024/03/20 06:07:46;;;;;;;14.70;7.13;;;6.70;68.00;;;1.86;100.00;95758.00;4972803;28;20038;-51
2024/03/20 06:10:13;;;;;;;11.75;6.90;;;6.80;68.00;;;1.94;100.00;95760.41;4971745;28;20018;-51
2024/03/20 06:12:39;;;;;;;16.85;8.50;;;6.90;68.10;;;1.99;100.00;95759.78;4972998;28;20053;-48
2024/03/20 06:15:10;;;;;;;14.43;7.43;;;6.90;68.20;;;2.09;100.00;95760.97;4971993;28;20108;-55
2024/03/20 06:17:38;;;;;;;19.15;8.55;;;7.00;68.30;;;2.15;100.00;95758.53;4972542;28;20030;-54
2024/03/20 06:20:05;;;;;;;18.50;8.60;;;7.00;68.20;;;2.21;100.00;95758.50;4972789;28;20026;-48
2024/03/20 06:22:34;;;;;;;14.35;7.68;;;7.10;68.30;;;2.25;100.00;95758.91;4972116;28;20496;-51
2024/03/20 06:25:06;;;;;;;17.02;7.78;;;7.10;68.20;;;2.24;100.00;95763.34;4972766;28;20492;-51
2024/03/20 06:27:36;;;;;;;20.98;9.68;;;7.20;68.20;;;2.25;100.00;95758.91;4968293;28;20050;-50
2024/03/20 06:30:11;;;;;;;21.65;10.65;;;7.20;68.10;;;2.27;100.00;95759.50;4984152;23;20054;-52
2024/03/20 06:32:38;;;;;;;24.83;10.77;;;7.30;68.10;;;2.36;100.00;95758.25;4972356;28;20171;-50
2024/03/20 06:35:08;;;;;;;20.20;11.80;;;7.30;68.10;;;2.46;100.00;95765.69;4970525;28;20026;-55
2024/03/20 06:37:35;;;;;;;21.88;11.57;;;7.40;68.30;;;2.55;100.00;95761.81;4972315;28;20157;-52
2024/03/20 06:40:10;;;;;;;24.58;13.07;;;7.50;68.40;;;2.71;100.00;95771.03;4967385;28;20053;-48
2024/03/20 06:42:40;;;;;;;22.50;12.52;;;7.60;68.50;;;2.86;100.00;95762.88;4967094;28;20026;-54
2024/03/20 06:45:08;;;;;;;23.70;12.02;;;7.80;68.60;;;3.01;100.00;95766.84;4965756;28;20084;-54
2024/03/20 06:47:35;;;;;;;22.63;11.73;;;8.00;68.80;;;3.20;100.00;95766.91;4967305;28;20560;-49
2024/03/20 06:50:02;;;;;;;19.15;10.27;;;8.20;68.90;;;3.35;100.00;95766.59;4970811;28;20381;-49
2024/03/20 06:52:34;;;;;;;13.15;7.03;;;8.30;68.90;;;3.66;100.00;95768.34;4961947;28;20362;-51
2024/03/20 06:55:00;;;;;;;18.83;9.37;;;8.50;69.10;;;4.02;100.00;95762.34;4965700;28;20080;-49
2024/03/20 06:57:26;;;;;;;10.43;6.53;;;8.80;69.40;;;4.31;100.00;95762.63;4964713;28;20045;-50
2024/03/20 06:59:51;;;;;;;10.18;6.05;;;9.10;69.50;;;4.59;100.00;95764.75;4970460;28;20022;-48
2024/03/20 07:02:17;;;;;;;10.57;5.50;;;9.50;69.50;;;4.90;100.00;95769.00;4970492;28;20125;-49
2024/03/20 07:04:43;;;;;;;7.45;5.30;;;9.90;69.60;;;5.26;100.00;95770.72;4965942;28;20029;-54
2024/03/20 07:07:11;;;;;;;10.00;5.72;;;10.30;69.60;;;5.66;100.00;95770.09;4967043;28;20026;-51
2024/03/20 07:09:37;;;;;;;7.15;5.13;;;10.80;69.50;;;6.05;100.00;95772.31;4964718;28;20529;-49
2024/03/20 07:12:04;;;;;;;5.97;5.07;;;11.30;69.60;;;6.44;100.00;95770.78;4963719;28;20045;-49
2024/03/20 07:14:31;;;;;;;6.63;4.68;;;11.70;69.40;;;6.79;100.00;95775.16;4969111;28;20045;-51
2024/03/20 07:16:57;;;;;;;5.53;4.10;;;12.20;69.20;;;7.10;100.00;95776.53;4965209;28;20036;-51
2024/03/20 07:19:23;;;;;;;5.38;4.07;;;12.60;68.90;;;7.41;100.00;95777.88;4963967;28;20137;-53
2024/03/20 07:21:50;;;;;;;4.40;2.78;;;13.00;68.50;;;7.60;100.00;95776.59;4966022;28;20049;-50
2024/03/20 07:24:16;;;;;;;3.15;2.80;;;13.50;67.80;;;7.87;100.00;95784.72;4969442;28;20022;-52
2024/03/20 07:26:42;;;;;;;3.08;2.70;;;13.80;67.00;;;8.08;100.00;95783.19;4950209;28;20029;-54
2024/03/20 07:29:11;;;;;;;6.82;2.72;;;14.20;66.00;;;8.37;100.00;95791.00;4964786;28;20042;-53
2024/03/20 07:31:39;;;;;;;2.70;2.33;;;14.60;64.90;;;8.73;100.00;95784.31;4969458;28;20031;-55
2024/03/20 07:34:06;;;;;;;3.22;2.40;;;15.00;63.90;;;9.19;100.00;95789.34;4965391;28;20034;-50
2024/03/20 07:36:36;;;;;;;2.72;2.45;;;15.30;63.00;;;9.50;100.00;95787.78;4968589;28;20034;-50
2024/03/20 07:39:04;;;;;;;3.60;2.97;;;15.70;62.20;;;9.75;96.72;95784.53;4964320;28;20026;-52
2024/03/20 07:41:31;;;;;;;3.13;2.65;;;16.00;61.10;;;10.15;94.84;95784.03;4967027;28;20034;-52
2024/03/20 07:43:56;;;;;;;5.57;2.78;;;16.40;61.30;;;10.46;90.63;95789.53;4971784;28;20049;-50
2024/03/20 07:46:23;;;;;;;3.25;2.33;;;16.70;59.70;;;10.75;86.34;95786.47;4961399;28;20489;-50
2024/03/20 07:48:49;;;;;;;3.38;2.55;;;17.00;59.10;;;11.04;86.64;95785.00;4966467;28;20508;-52
2024/03/20 07:51:19;;;;;;;2.83;2.45;;;17.30;58.50;;;11.25;82.76;95790.38;4965350;28;20032;-50
2024/03/20 07:53:46;;;;;;;4.78;2.53;;;17.60;57.90;;;11.45;82.62;95790.44;4969121;28;20029;-50
2024/03/20 07:56:14;;;;;;;2.53;2.33;;;17.80;57.30;;;11.73;80.64;95789.13;4968354;28;20018;-48
2024/03/20 07:58:43;;;;;;;3.03;2.47;;;18.10;56.70;;;12.01;80.02;95785.16;4974789;28;20026;-48
2024/03/20 08:01:12;;;;;;;2.92;2.53;;;18.40;56.20;;;12.29;77.50;95784.84;4969307;28;20116;-54
2024/03/20 08:03:39;;;;;;;4.00;2.40;;;18.70;55.60;;;12.65;74.56;95794.38;4967217;28;20174;-50
2024/03/20 08:06:05;;;;;;;3.00;2.60;;;18.90;55.00;;;12.81;72.71;95795.09;4968717;28;20022;-53
2024/03/20 08:08:32;;;;;;;3.47;2.78;;;19.30;54.60;;;13.04;71.30;95787.56;4969300;28;20026;-50
2024/03/20 08:10:58;;;;;;;3.25;2.72;;;19.50;53.80;;;13.19;69.37;95787.44;4965398;28;20030;-49
2024/03/20 08:13:24;;;;;;;2.67;2.38;;;19.80;53.20;;;13.36;70.11;95773.75;4963436;28;20439;-51
2024/03/20 08:15:49;;;;;;;3.45;3.00;;;20.00;52.60;;;13.48;67.73;95782.25;4966074;28;20033;-53
2024/03/20 08:18:16;;;;;;;4.68;3.03;;;20.20;51.90;;;13.67;67.57;95778.91;4968887;28;20030;-50
2024/03/20 08:20:42;;;;;;;3.58;2.53;;;20.40;51.50;;;13.73;68.81;95785.81;4969494;28;20033;-50
2024/03/20 08:23:08;;;;;;;3.88;2.63;;;20.50;51.20;;;14.02;68.66;95783.97;4966127;28;20026;-47
2024/03/20 08:25:35;;;;;;;3.95;2.70;;;20.80;50.70;;;14.41;65.86;95785.75;4970120;28;20038;-48
2024/03/20 08:28:03;;;;;;;3.80;2.75;;;21.00;50.20;;;14.53;64.35;95790.75;4966238;28;20105;-49
2024/03/20 08:30:29;;;;;;;3.75;2.70;;;21.20;49.90;;;14.54;65.16;95786.97;4963252;28;20046;-52
2024/03/20 08:32:55;;;;;;;3.00;2.80;;;21.40;49.60;;;14.74;63.27;95788.66;4969047;28;20387;-48
2024/03/20 08:35:21;;;;;;;4.47;3.00;;;21.50;49.20;;;15.03;63.70;95783.22;4965888;28;20030;-53
2024/03/20 08:37:47;;;;;;;4.55;3.20;;;21.80;48.90;;;15.27;62.10;95780.50;4966935;28;20511;-53
2024/03/20 08:40:14;;;;;;;3.75;3.30;;;22.00;48.40;;;15.41;60.43;95775.19;4968139;28;20030;-51
2024/03/20 08:42:42;;;;;;;3.70;3.08;;;22.20;47.70;;;15.67;59.22;95789.09;4963627;28;20022;-52
2024/03/20 08:45:09;;;;;;;3.95;3.35;;;22.40;47.10;;;15.85;59.13;95785.56;4967608;28;20026;-50
2024/03/20 08:47:37;;;;;;;4.75;3.38;;;22.60;46.60;;;16.06;59.01;95790.63;4964965;28;20108;-51
2024/03/20 08:50:04;;;;;;;3.80;3.40;;;22.90;46.20;;;16.31;57.59;95790.19;4970176;28;20493;-48
2024/03/20 08:52:30;;;;;;;4.88;3.80;;;23.10;45.70;;;16.52;57.83;95790.63;4965111;28;20093;-52
2024/03/20 08:54:56;;;;;;;5.45;4.25;;;23.30;46.00;;;16.53;57.29;95788.72;4963775;28;20029;-48
2024/03/20 08:57:22;;;;;;;6.20;4.35;;;23.60;45.00;;;16.70;56.75;95793.50;4965801;28;20034;-51
2024/03/20 08:59:48;;;;;;;5.40;4.20;;;23.70;44.50;;;16.85;56.78;95794.03;4973825;28;20139;-53
2024/03/20 09:02:14;;;;;;;5.97;4.63;;;24.00;44.00;;;16.88;57.34;95792.66;4965723;28;20042;-50
2024/03/20 09:04:41;;;;;;;4.80;4.30;;;24.10;43.70;;;17.05;59.33;95795.56;4965625;28;20053;-51
2024/03/20 09:07:07;;;;;;;4.95;4.25;;;24.30;43.60;;;17.32;56.65;95788.53;4963919;28;20456;-55
2024/03/20 09:09:34;;;;;;;6.30;4.72;;;24.50;43.40;;;17.58;56.16;95794.16;4963010;28;20034;-54
2024/03/20 09:12:04;;;;;;;7.28;4.80;;;24.60;42.90;;;17.62;54.96;95783.59;4967002;28;20095;-48
2024/03/20 09:14:33;;;;;;;8.90;5.05;;;24.70;42.60;;;17.80;56.76;95786.13;4966901;28;20132;-49
2024/03/20 09:16:59;;;;;;;6.07;5.47;;;24.80;42.60;;;18.07;54.01;95781.72;4964326;28;20035;-49
2024/03/20 09:19:25;;;;;;;7.88;6.00;;;25.00;42.40;;;18.04;53.16;95780.44;4968151;28;20026;-51
2024/03/20 09:21:51;;;;;;;9.00;6.30;;;25.10;42.10;;;18.12;55.13;95787.00;4967647;28;20061;-50
2024/03/20 09:24:22;;;;;;;6.93;5.55;;;25.20;41.80;;;18.27;53.86;95783.13;4968830;28;20465;-48
2024/03/20 09:26:51;;;;;;;7.65;6.00;;;25.20;41.40;;;18.39;53.61;95777.94;4966473;28;20053;-49
2024/03/20 09:29:17;;;;;;;6.40;5.80;;;25.40;41.30;;;18.44;52.61;95779.72;4959077;28;20047;-53
2024/03/20 09:31:43;;;;;;;6.38;5.78;;;25.40;41.10;;;18.50;50.88;95771.19;4969955;28;20076;-52
2024/03/20 09:34:09;;;;;;;7.32;6.38;;;25.50;40.70;;;18.69;52.07;95775.56;4966216;28;20404;-51
2024/03/20 09:36:34;;;;;;;8.43;7.40;;;25.60;40.50;;;18.85;49.71;95767.88;4968251;28;20121;-48
2024/03/20 09:39:01;;;;;;;9.35;7.50;;;25.70;39.90;;;19.05;48.96;95769.19;4970706;28;20022;-48
2024/03/20 09:41:27;;;;;;;10.23;7.05;;;25.80;39.50;;;19.11;50.72;95763.31;4967459;28;20370;-52
2024/03/20 09:43:54;;;;;;;8.02;7.22;;;25.90;39.40;;;19.31;49.58;95758.44;4977946;28;20436;-53
2024/03/20 09:46:22;;;;;;;9.30;7.28;;;26.00;39.20;;;19.44;48.91;95762.91;4966284;28;20019;-52
2024/03/20 09:48:53;;;;;;;7.82;7.03;;;26.30;39.20;;;19.62;48.99;95761.03;4971878;28;20080;-51
2024/03/20 09:51:21;;;;;;;9.33;8.13;;;26.50;38.70;;;19.86;45.96;95766.75;4969921;28;20045;-52
2024/03/20 09:53:52;;;;;;;9.02;7.30;;;26.70;38.30;;;19.88;47.29;95755.63;4971132;28;20026;-52
2024/03/20 09:56:25;;;;;;;10.52;8.35;;;26.90;37.80;;;19.89;46.05;95757.22;4972494;28;20125;-54
2024/03/20 09:58:54;;;;;;;9.50;7.13;;;27.10;37.30;;;20.08;47.83;95754.94;4967835;28;20033;-48
2024/03/20 10:01:22;;;;;;;8.10;7.25;;;27.20;37.40;;;20.33;45.70;95756.00;4971469;28;20026;-54
2024/03/20 10:03:55;;;;;;;8.02;6.90;;;27.30;37.10;;;20.36;45.85;95751.06;4967017;28;20030;-53
2024/03/20 10:06:27;;;;;;;8.73;7.15;;;27.50;36.70;;;20.43;44.43;95756.78;4969236;28;20499;-51
2024/03/20 10:08:53;;;;;;;7.63;6.78;;;27.70;37.10;;;20.52;45.28;95758.38;4973374;28;20026;-52
2024/03/20 10:11:20;;;;;;;9.02;7.10;;;27.80;37.10;;;20.33;46.27;95755.22;4966821;28;20396;-51
2024/03/20 10:13:46;;;;;;;8.13;6.97;;;27.90;36.30;;;20.42;47.86;95756.00;4969001;28;20114;-51
2024/03/20 10:16:16;;;;;;;7.00;6.30;;;28.10;36.40;;;20.69;45.71;95754.03;4967756;28;20420;-54
2024/03/20 10:18:45;;;;;;;7.22;6.53;;;28.30;36.00;;;20.98;45.70;95747.84;4968015;28;20053;-50
2024/03/20 10:21:11;;;;;;;8.85;7.03;;;28.60;35.80;;;21.25;45.48;95747.34;4966384;28;20488;-54